Time;durP1;ratioP1;P1;durP2;ratioP2;P2;SDS_P1;SDS_P2;PMS_P1;PMS_P2;Temp;Humidity;BMP_temperature;BMP_pressure;BME280_temperature;BME280_humidity;BME280_pressure;Samples;Min_cycle;Max_cycle;Signal;HPM_P1;HPM_P2
2022/07/29 00:01:27;;;;;;;2.90;2.73;;;;;;;25.71;61.39;99479.97;5128510;27;20198;-78
2022/07/29 00:03:54;;;;;;;2.40;2.30;;;;;;;25.64;61.33;99472.78;5118436;27;20209;-78
2022/07/29 00:06:21;;;;;;;2.63;2.43;;;;;;;25.58;61.74;99475.00;5119428;27;20194;-78
2022/07/29 00:08:48;;;;;;;2.43;2.23;;;;;;;25.54;62.04;99473.63;5115909;27;20274;-77
2022/07/29 00:11:15;;;;;;;2.40;2.30;;;;;;;25.52;62.41;99469.47;5117948;27;20202;-78
2022/07/29 00:13:41;;;;;;;4.30;2.40;;;;;;;25.48;62.97;99468.91;5116571;27;20560;-78
2022/07/29 00:16:08;;;;;;;2.87;2.77;;;;;;;25.44;63.26;99471.94;5128944;27;20190;-78
2022/07/29 00:18:36;;;;;;;2.40;2.30;;;;;;;25.42;63.02;99468.63;5124938;27;20201;-78
2022/07/29 00:21:03;;;;;;;2.37;2.27;;;;;;;25.34;63.32;99477.19;5130392;27;20563;-77
2022/07/29 00:23:30;;;;;;;2.57;2.47;;;;;;;25.31;63.17;99476.63;5115656;27;20250;-78
2022/07/29 00:25:57;;;;;;;2.20;2.10;;;;;;;25.26;63.26;99478.84;5124799;27;20681;-77
2022/07/29 00:28:23;;;;;;;2.63;2.53;;;;;;;25.19;64.09;99477.72;5120039;27;20215;-78
2022/07/29 00:30:50;;;;;;;2.60;2.50;;;;;;;25.14;64.20;99469.44;5117473;27;20582;-78
2022/07/29 00:33:17;;;;;;;2.20;2.10;;;;;;;25.01;63.54;99449.53;5124440;27;20670;-78
2022/07/29 00:35:44;;;;;;;2.53;2.43;;;;;;;25.03;63.99;99465.97;5131761;27;20190;-78
2022/07/29 00:38:12;;;;;;;2.83;2.73;;;;;;;24.95;63.73;99460.56;5126451;27;20213;-77
2022/07/29 00:40:39;;;;;;;2.70;2.50;;;;;;;24.89;64.28;99470.75;5126181;27;20275;-78
2022/07/29 00:43:06;;;;;;;2.60;2.50;;;;;;;24.84;64.80;99473.81;5127531;27;20198;-77
2022/07/29 00:45:33;;;;;;;2.90;2.53;;;;;;;24.84;64.90;99471.19;5120491;27;20259;-78
2022/07/29 00:48:00;;;;;;;2.70;2.50;;;;;;;24.83;64.40;99480.00;5120096;27;20198;-78
2022/07/29 00:50:27;;;;;;;6.27;3.17;;;;;;;24.84;64.38;99473.81;5114465;27;20291;-78
2022/07/29 00:52:56;;;;;;;3.23;3.13;;;;;;;24.82;63.92;99465.22;5113942;27;20195;-78
2022/07/29 00:55:22;;;;;;;2.40;2.30;;;;;;;24.81;63.88;99470.59;5123864;27;20582;-78
2022/07/29 00:57:50;;;;;;;2.70;2.50;;;;;;;24.77;63.69;99477.91;5124025;27;20201;-77
2022/07/29 01:00:19;;;;;;;3.50;3.20;;;;;;;24.66;63.44;99475.38;5129309;27;20190;-77
2022/07/29 01:02:48;;;;;;;2.63;2.43;;;;;;;24.60;64.16;99473.28;5125420;27;20689;-78
2022/07/29 01:05:17;;;;;;;2.70;2.57;;;;;;;24.57;64.51;99468.31;5128243;27;20218;-77
2022/07/29 01:07:45;;;;;;;2.37;2.27;;;;;;;24.54;64.91;99476.44;5120270;27;20189;-77
2022/07/29 01:10:15;;;;;;;2.60;2.50;;;;;;;24.47;64.81;99481.38;5123263;27;20690;-78
2022/07/29 01:12:44;;;;;;;2.73;2.30;;;;;;;24.41;64.79;99475.84;5121861;27;20206;-77
2022/07/29 01:15:12;;;;;;;2.17;2.07;;;;;;;24.35;65.02;99481.59;5122878;27;20198;-78
2022/07/29 01:17:46;;;;;;;2.23;2.13;;;;;;;24.32;65.05;99474.00;5119476;27;20577;-78
2022/07/29 01:20:17;;;;;;;2.40;2.30;;;;;;;24.30;65.04;99489.00;5124673;27;20658;-78
2022/07/29 01:23:12;;;;;;;2.50;2.10;;;;;;;24.28;64.50;99488.31;5125373;27;20209;-77
2022/07/29 01:26:01;;;;;;;2.40;2.30;;;;;;;24.23;64.30;99482.66;5122293;27;20270;-77
2022/07/29 01:28:50;;;;;;;2.43;2.33;;;;;;;24.11;64.08;99478.41;5124260;27;20205;-77
2022/07/29 01:31:20;;;;;;;4.23;1.77;;;;;;;23.99;64.49;99475.88;5125895;27;20202;-77
2022/07/29 01:33:53;;;;;;;2.40;2.30;;;;;;;23.96;65.11;99465.66;5118639;27;20191;-77
2022/07/29 01:36:28;;;;;;;3.23;2.40;;;;;;;23.96;65.35;99463.03;5125267;27;20556;-78
2022/07/29 01:39:03;;;;;;;2.40;2.20;;;;;;;23.93;65.42;99471.16;5121767;27;20689;-77
2022/07/29 01:41:34;;;;;;;2.20;2.10;;;;;;;23.88;65.26;99462.84;5127081;28;20210;-77
2022/07/29 01:44:08;;;;;;;2.50;2.40;;;;;;;23.87;65.67;99463.81;5121942;28;20198;-77
2022/07/29 01:46:37;;;;;;;2.20;2.13;;;;;;;23.87;65.89;99463.81;5116371;28;20213;-78
2022/07/29 01:49:11;;;;;;;4.20;2.63;;;;;;;23.85;66.26;99467.50;5124282;28;20191;-78
2022/07/29 01:51:46;;;;;;;2.43;2.23;;;;;;;23.82;66.09;99463.34;5125538;28;20207;-77
2022/07/29 01:54:21;;;;;;;2.70;2.50;;;;;;;23.81;66.40;99466.91;5121456;28;20670;-78
2022/07/29 01:56:51;;;;;;;2.60;2.50;;;;;;;23.76;66.53;99458.63;5083693;28;20200;-77
2022/07/29 01:59:23;;;;;;;2.77;2.63;;;;;;;23.69;66.28;99462.72;5083692;28;20203;-77
2022/07/29 02:01:53;;;;;;;2.53;2.33;;;;;;;23.62;66.53;99461.56;5087226;28;20207;-77
2022/07/29 02:04:21;;;;;;;2.77;2.57;;;;;;;23.61;66.91;99462.53;5083133;28;20204;-78
2022/07/29 02:06:51;;;;;;;2.20;2.10;;;;;;;23.60;66.95;99463.50;5083598;28;20220;-77
2022/07/29 02:09:20;;;;;;;2.80;2.70;;;;;;;23.57;66.77;99455.06;5084112;28;20252;-78
2022/07/29 02:11:53;;;;;;;2.67;2.47;;;;;;;23.53;66.75;99457.09;5086383;28;20208;-77
2022/07/29 02:14:23;;;;;;;3.03;2.83;;;;;;;23.46;67.66;99448.91;5087487;28;20564;-78
2022/07/29 02:16:54;;;;;;;2.53;2.43;;;;;;;23.49;67.36;99450.44;5086448;28;20203;-77
2022/07/29 02:19:22;;;;;;;3.00;2.90;;;;;;;23.44;66.91;99443.00;5085675;28;20208;-77
2022/07/29 02:21:52;;;;;;;3.33;3.03;;;;;;;23.42;67.41;99455.38;5091189;28;20690;-77
2022/07/29 02:24:21;;;;;;;2.70;2.60;;;;;;;23.43;67.12;99457.03;5088835;28;20586;-77
2022/07/29 02:26:50;;;;;;;3.60;3.30;;;;;;;23.32;67.49;99437.91;5090683;28;20219;-77
2022/07/29 02:29:20;;;;;;;4.07;3.87;;;;;;;23.40;67.72;99451.19;5085913;28;20553;-77
2022/07/29 02:31:51;;;;;;;3.50;3.20;;;;;;;23.37;67.92;99448.81;5081513;28;20204;-77
2022/07/29 02:34:20;;;;;;;3.47;3.20;;;;;;;23.34;68.38;99443.81;5088287;28;20229;-77
2022/07/29 02:36:49;;;;;;;4.00;3.80;;;;;;;23.28;69.22;99452.19;5084817;28;20192;-77
2022/07/29 02:39:17;;;;;;;5.27;3.53;;;;;;;23.25;68.62;99449.81;5077365;28;20211;-77
2022/07/29 02:41:47;;;;;;;3.87;3.67;;;;;;;23.22;69.10;99452.69;5086008;28;20249;-77
2022/07/29 02:44:16;;;;;;;4.43;4.13;;;;;;;23.20;69.08;99449.38;5086324;28;20671;-77
2022/07/29 02:46:50;;;;;;;3.57;3.27;;;;;;;23.13;69.24;99442.97;5089818;28;20211;-77
2022/07/29 02:49:24;;;;;;;8.73;3.67;;;;;;;23.15;69.45;99441.88;5081367;28;20696;-78
2022/07/29 02:51:55;;;;;;;3.53;3.33;;;;;;;23.16;69.24;99440.09;5083493;28;20200;-77
2022/07/29 02:54:31;;;;;;;3.57;3.37;;;;;;;23.14;69.08;99440.22;5081236;28;20302;-77
2022/07/29 02:56:59;;;;;;;3.80;3.43;;;;;;;23.08;69.48;99434.66;5122131;27;20194;-77
2022/07/29 02:59:31;;;;;;;3.93;3.53;;;;;;;23.07;69.74;99438.25;5125982;27;20202;-77
2022/07/29 03:02:01;;;;;;;3.87;3.53;;;;;;;23.10;70.55;99456.31;5125755;27;20214;-77
2022/07/29 03:04:29;;;;;;;3.67;3.33;;;;;;;23.10;70.42;99453.69;5120868;27;20558;-77
2022/07/29 03:07:00;;;;;;;5.67;3.57;;;;;;;23.09;70.41;99452.00;5120448;27;20210;-77
2022/07/29 03:09:28;;;;;;;3.90;3.60;;;;;;;23.10;70.64;99451.06;5123365;27;20293;-77
2022/07/29 03:11:56;;;;;;;3.97;3.77;;;;;;;23.10;70.62;99448.47;5131977;27;20190;-77
2022/07/29 03:14:24;;;;;;;4.10;3.33;;;;;;;23.09;71.00;99454.63;5123270;27;20201;-77
2022/07/29 03:16:53;;;;;;;4.27;3.73;;;;;;;23.06;71.82;99465.34;5119087;27;20658;-77
2022/07/29 03:19:22;;;;;;;9.33;3.27;;;;;;;23.05;71.45;99461.06;5123774;27;20635;-76
2022/07/29 03:21:49;;;;;;;3.10;2.87;;;;;;;22.94;71.04;99456.72;5122143;27;20206;-77
2022/07/29 03:24:34;;;;;;;3.83;3.63;;;;;;;23.00;71.20;99466.66;5124852;27;20190;-77
2022/07/29 03:27:02;;;;;;;4.43;4.03;;;;;;;23.00;71.21;99464.88;5125681;27;20221;-77
2022/07/29 03:29:29;;;;;;;4.10;3.90;;;;;;;23.00;71.61;99464.88;5123658;27;20213;-77
2022/07/29 03:31:56;;;;;;;5.70;5.20;;;;;;;22.99;71.94;99473.69;5129331;27;20214;-77
2022/07/29 03:34:24;;;;;;;4.93;4.53;;;;;;;22.97;73.11;99467.72;5121499;27;20574;-77
2022/07/29 03:36:51;;;;;;;6.30;4.80;;;;;;;22.99;74.52;99478.06;5124422;27;20198;-77
2022/07/29 03:39:22;;;;;;;4.97;4.67;;;;;;;22.98;75.70;99477.25;5117439;27;20219;-77
2022/07/29 03:41:53;;;;;;;5.10;4.63;;;;;;;22.98;76.31;99472.00;5127941;27;20701;-77
2022/07/29 03:44:21;;;;;;;6.43;4.60;;;;;;;22.99;77.45;99472.84;5125781;27;20649;-77
2022/07/29 03:46:50;;;;;;;4.33;4.03;;;;;;;22.97;77.75;99465.09;5124206;27;20214;-77
2022/07/29 03:49:17;;;;;;;8.07;4.00;;;;;;;22.96;78.36;99473.94;5128205;27;20201;-77
2022/07/29 03:51:46;;;;;;;4.23;4.03;;;;;;;22.90;79.46;99474.41;5115048;27;20268;-77
2022/07/29 03:54:13;;;;;;;5.30;5.00;;;;;;;22.90;80.42;99473.59;5124311;27;20201;-77
2022/07/29 03:56:46;;;;;;;4.70;4.40;;;;;;;22.89;80.83;99472.75;5124310;27;20190;-78
2022/07/29 03:59:14;;;;;;;4.53;4.33;;;;;;;22.92;81.18;99477.72;5118199;27;20230;-77
2022/07/29 04:01:42;;;;;;;4.63;4.43;;;;;;;23.00;81.13;99474.50;5117885;27;20582;-77
2022/07/29 04:04:09;;;;;;;4.97;4.60;;;;;;;23.04;80.90;99485.56;5118270;27;20213;-77
2022/07/29 04:06:40;;;;;;;4.63;4.43;;;;;;;23.12;81.28;99477.91;5120887;27;20221;-77
2022/07/29 04:09:10;;;;;;;5.07;4.67;;;;;;;23.09;81.28;99468.53;5118952;27;20200;-77
2022/07/29 04:11:39;;;;;;;4.90;4.57;;;;;;;23.24;81.24;99488.22;5123570;27;20724;-77
2022/07/29 04:14:05;;;;;;;4.90;4.43;;;;;;;23.36;80.55;99489.03;5127441;27;20665;-77
2022/07/29 04:16:33;;;;;;;4.87;4.53;;;;;;;23.47;79.68;99489.84;5123570;27;20187;-77
2022/07/29 04:19:00;;;;;;;4.90;4.50;;;;;;;23.59;78.55;99490.59;5125512;27;20194;-77
2022/07/29 04:21:27;;;;;;;5.50;4.27;;;;;;;23.72;78.55;99493.88;5131986;27;20601;-77
2022/07/29 04:23:53;;;;;;;4.07;3.77;;;;;;;23.86;77.30;99496.19;5129588;27;20194;-77
2022/07/29 04:26:22;;;;;;;4.03;3.83;;;;;;;23.99;77.04;99496.81;5121050;27;20263;-77
2022/07/29 04:28:49;;;;;;;4.60;4.20;;;;;;;24.15;76.12;99496.41;5129889;27;20198;-77
2022/07/29 04:31:15;;;;;;;4.57;4.20;;;;;;;24.31;75.87;99495.91;5122159;27;20202;-77
2022/07/29 04:33:42;;;;;;;4.13;3.83;;;;;;;24.48;75.50;99497.94;5126022;27;20194;-77
2022/07/29 04:36:10;;;;;;;4.30;4.10;;;;;;;24.64;72.63;99493.03;5120872;27;20205;-77
2022/07/29 04:38:38;;;;;;;4.20;4.00;;;;;;;24.76;72.77;99496.38;5120249;27;20263;-77
2022/07/29 04:41:05;;;;;;;3.90;3.70;;;;;;;24.93;72.35;99504.47;5116825;27;20206;-77
2022/07/29 04:43:33;;;;;;;4.57;4.37;;;;;;;25.13;72.92;99492.22;5123592;27;20194;-77
2022/07/29 04:46:00;;;;;;;3.60;3.40;;;;;;;25.34;72.50;99502.59;5114667;27;20717;-77
2022/07/29 04:48:27;;;;;;;4.27;4.00;;;;;;;25.49;73.08;99511.72;5118367;27;20202;-78
2022/07/29 04:50:54;;;;;;;4.93;4.50;;;;;;;25.64;72.31;99509.53;5125960;27;20701;-77
2022/07/29 04:53:21;;;;;;;5.37;4.93;;;;;;;25.79;72.43;99508.97;5118776;27;20203;-77
2022/07/29 04:55:48;;;;;;;5.53;5.00;;;;;;;25.93;72.94;99508.56;5117525;27;20597;-78
2022/07/29 04:58:15;;;;;;;5.33;4.93;;;;;;;25.89;72.13;99469.56;5128831;27;20662;-78
2022/07/29 05:00:43;;;;;;;4.97;4.67;;;;;;;26.30;71.39;99510.44;5118656;27;20572;-78
2022/07/29 05:03:10;;;;;;;4.97;4.67;;;;;;;26.50;69.83;99522.53;5112747;27;20263;-78
2022/07/29 05:05:36;;;;;;;4.33;4.13;;;;;;;26.68;67.80;99512.91;5112580;27;20686;-78
2022/07/29 05:08:03;;;;;;;3.73;3.53;;;;;;;26.85;68.05;99520.03;5112832;27;20209;-78
2022/07/29 05:10:30;;;;;;;4.73;4.53;;;;;;;26.95;65.30;99515.56;5113374;27;20360;-77
2022/07/29 05:12:57;;;;;;;4.40;4.07;;;;;;;27.16;63.71;99514.47;5124856;27;20202;-78
2022/07/29 05:15:24;;;;;;;5.30;4.73;;;;;;;27.34;63.96;99510.03;5129724;27;20198;-77
2022/07/29 05:17:52;;;;;;;4.80;4.50;;;;;;;27.55;63.41;99526.41;5130720;27;20197;-78
2022/07/29 05:20:25;;;;;;;6.77;4.80;;;;;;;27.77;63.15;99523.31;5126323;27;20578;-78
2022/07/29 05:22:52;;;;;;;4.53;4.13;;;;;;;27.95;62.34;99510.94;5124598;27;20574;-78
2022/07/29 05:25:19;;;;;;;5.10;4.80;;;;;;;28.25;61.72;99522.03;5119647;27;20202;-77
2022/07/29 05:27:46;;;;;;;4.87;4.57;;;;;;;28.42;60.63;99518.50;5120136;27;20942;-77
2022/07/29 05:30:13;;;;;;;3.90;3.70;;;;;;;28.64;60.52;99517.97;5125361;27;20198;-81
2022/07/29 05:32:43;;;;;;;4.63;4.43;;;;;;;28.84;58.43;99518.56;5123003;27;20737;-76
2022/07/29 05:35:12;;;;;;;4.63;4.33;;;;;;;28.97;56.93;99509.22;5122950;28;20201;-76
2022/07/29 05:37:38;;;;;;;3.90;3.70;;;;;;;29.23;55.76;99518.84;5116612;27;20198;-77
2022/07/29 05:40:08;;;;;;;4.00;3.70;;;;;;;29.42;55.56;99523.84;5120161;28;20194;-77
2022/07/29 05:42:35;;;;;;;5.17;4.87;;;;;;;29.54;54.46;99527.81;5124417;27;20692;-78
2022/07/29 05:45:02;;;;;;;4.07;3.63;;;;;;;29.70;53.88;99533.13;5119660;28;20276;-74
2022/07/29 05:47:29;;;;;;;4.32;4.03;;;;;;;29.84;54.16;99540.44;5118115;28;20226;-70
2022/07/29 05:49:57;;;;;;;3.22;3.13;;;;;;;30.03;52.85;99542.72;5119537;28;20190;-75
2022/07/29 05:52:25;;;;;;;5.40;3.80;;;;;;;30.13;51.81;99546.03;5119242;28;20662;-74
2022/07/29 05:54:52;;;;;;;6.05;4.25;;;;;;;30.19;52.56;99545.34;5120104;28;20221;-69
2022/07/29 05:57:20;;;;;;;3.95;3.75;;;;;;;30.40;54.19;99541.38;5124167;28;20647;-73
2022/07/29 05:59:47;;;;;;;5.05;4.00;;;;;;;30.60;52.19;99553.22;5118508;27;20191;-73
2022/07/29 06:02:15;;;;;;;3.90;3.70;;;;;;;30.58;52.28;99528.75;5120023;28;20293;-72
2022/07/29 06:04:41;;;;;;;3.55;3.35;;;;;;;30.69;49.55;99553.06;5115138;28;20251;-72
2022/07/29 06:07:08;;;;;;;3.28;3.08;;;;;;;30.88;51.28;99545.69;5119404;28;20701;-73
2022/07/29 06:09:37;;;;;;;4.05;3.85;;;;;;;31.08;49.58;99547.75;5126824;28;20207;-72
2022/07/29 06:12:04;;;;;;;3.35;3.05;;;;;;;31.13;51.31;99540.13;5115250;28;20210;-72
2022/07/29 06:14:32;;;;;;;3.70;3.35;;;;;;;31.38;50.90;99547.91;5117131;28;20210;-70
2022/07/29 06:16:59;;;;;;;3.10;3.00;;;;;;;31.50;48.86;99542.09;5125124;28;20590;-73
2022/07/29 06:19:25;;;;;;;3.75;2.97;;;;;;;31.66;50.68;99546.44;5123170;28;20198;-72
2022/07/29 06:21:52;;;;;;;3.20;2.95;;;;;;;31.76;48.66;99556.81;5124313;27;20198;-72
2022/07/29 06:24:19;;;;;;;3.40;3.30;;;;;;;31.79;49.00;99546.69;5118717;27;20209;-71
2022/07/29 06:26:48;;;;;;;3.42;3.30;;;;;;;31.90;47.36;99551.53;5118421;27;20225;-78
2022/07/29 06:29:15;;;;;;;3.80;3.50;;;;;;;32.09;47.54;99548.41;5119048;28;20213;-76
2022/07/29 06:31:41;;;;;;;3.70;3.50;;;;;;;32.30;48.15;99549.53;5120504;27;21007;-75
2022/07/29 06:34:08;;;;;;;4.07;3.88;;;;;;;32.40;46.36;99547.44;5124826;27;20295;-73
2022/07/29 06:36:36;;;;;;;4.45;4.15;;;;;;;32.38;45.99;99546.78;5124928;27;20221;-72
2022/07/29 06:39:06;;;;;;;4.05;3.85;;;;;;;32.54;46.76;99551.91;5126637;28;20214;-72
2022/07/29 06:41:33;;;;;;;4.25;4.05;;;;;;;32.59;44.35;99550.41;5123956;27;20202;-71
2022/07/29 06:44:01;;;;;;;4.85;4.55;;;;;;;32.57;45.97;99546.31;5121105;28;20577;-73
2022/07/29 06:46:28;;;;;;;4.63;4.32;;;;;;;32.68;46.25;99551.13;5122100;28;20222;-76
2022/07/29 06:48:55;;;;;;;4.63;4.43;;;;;;;32.66;44.77;99547.84;5119733;28;20198;-76
2022/07/29 06:51:22;;;;;;;4.75;4.35;;;;;;;32.69;45.38;99545.66;5125450;27;20206;-71
2022/07/29 06:53:50;;;;;;;5.18;4.68;;;;;;;32.62;44.79;99544.75;5130017;27;20665;-75
2022/07/29 06:56:17;;;;;;;3.75;3.42;;;;;;;32.73;47.03;99514.25;5128076;27;20276;-75
2022/07/29 06:58:44;;;;;;;6.07;4.32;;;;;;;33.13;44.45;99542.94;5128442;27;20207;-78
2022/07/29 07:01:12;;;;;;;4.75;4.55;;;;;;;33.31;45.21;99541.72;5123887;27;20218;-77
2022/07/29 07:03:39;;;;;;;4.85;4.57;;;;;;;33.23;45.30;99542.66;5124091;27;20206;-75
2022/07/29 07:06:06;;;;;;;5.03;4.50;;;;;;;33.39;46.37;99541.59;5127900;27;20213;-75
2022/07/29 07:08:33;;;;;;;6.72;4.22;;;;;;;33.35;47.00;99503.09;5129612;27;20202;-71
2022/07/29 07:10:59;;;;;;;4.30;4.00;;;;;;;33.55;46.35;99525.38;5126819;27;20204;-74
2022/07/29 07:13:27;;;;;;;4.32;4.13;;;;;;;33.78;46.18;99536.69;5130619;27;20205;-71
2022/07/29 07:15:59;;;;;;;4.07;3.88;;;;;;;33.91;42.94;99538.63;5127090;27;20578;-70
2022/07/29 07:18:28;;;;;;;4.60;4.30;;;;;;;34.03;44.10;99537.06;5128636;27;20205;-69
2022/07/29 07:20:55;;;;;;;4.63;4.43;;;;;;;34.08;43.09;99542.66;5122432;27;20201;-70
2022/07/29 07:23:22;;;;;;;4.65;4.35;;;;;;;34.31;42.95;99537.13;5119204;27;20205;-69
2022/07/29 07:25:49;;;;;;;4.53;4.13;;;;;;;34.56;42.15;99536.44;5123088;27;20206;-70
2022/07/29 07:28:16;;;;;;;5.88;4.10;;;;;;;34.87;42.05;99538.66;5127607;27;20728;-70
2022/07/29 07:30:43;;;;;;;4.28;4.05;;;;;;;34.91;40.04;99539.91;5120760;27;20615;-71
2022/07/29 07:33:10;;;;;;;4.32;4.05;;;;;;;34.66;40.45;99541.44;5129593;27;20206;-70
2022/07/29 07:35:38;;;;;;;3.70;3.35;;;;;;;34.47;40.94;99534.13;5123745;27;20198;-69
2022/07/29 07:38:05;;;;;;;3.88;3.78;;;;;;;34.39;41.02;99534.28;5131533;27;20199;-69
2022/07/29 07:40:32;;;;;;;6.47;4.13;;;;;;;34.53;39.88;99541.34;5129906;27;20765;-70
2022/07/29 07:42:59;;;;;;;4.22;4.03;;;;;;;34.68;39.71;99545.53;5127432;27;20693;-70
2022/07/29 07:45:26;;;;;;;7.03;4.25;;;;;;;34.60;39.16;99532.41;5125728;27;20194;-70
2022/07/29 07:47:53;;;;;;;3.95;3.65;;;;;;;34.62;39.91;99540.19;5118193;27;20233;-69
2022/07/29 07:50:20;;;;;;;3.75;3.45;;;;;;;34.76;39.27;99540.06;5123677;27;20198;-69
2022/07/29 07:52:49;;;;;;;4.30;4.07;;;;;;;34.84;39.58;99544.38;5121441;27;20686;-69
2022/07/29 07:55:17;;;;;;;4.50;4.07;;;;;;;34.92;37.63;99541.56;5125402;27;20770;-68
2022/07/29 07:57:44;;;;;;;3.85;3.65;;;;;;;34.78;39.78;99537.19;5118925;27;20198;-70
2022/07/29 08:00:12;;;;;;;5.78;3.35;;;;;;;34.74;38.42;99527.94;5120052;27;20210;-69
2022/07/29 08:02:40;;;;;;;3.75;3.55;;;;;;;34.81;38.94;99534.13;5123827;27;20228;-68
2022/07/29 08:05:07;;;;;;;3.33;3.13;;;;;;;35.03;38.23;99538.31;5123980;27;20251;-72
2022/07/29 08:07:34;;;;;;;3.63;3.35;;;;;;;34.98;38.60;99530.09;5117901;27;20225;-71
2022/07/29 08:10:03;;;;;;;3.38;3.03;;;;;;;34.88;38.74;99524.31;5118033;27;20709;-68
2022/07/29 08:12:30;;;;;;;3.45;3.30;;;;;;;34.58;36.77;99529.06;5120491;27;20194;-67
2022/07/29 08:14:57;;;;;;;3.80;3.50;;;;;;;34.83;37.46;99534.78;5119471;27;20203;-68
2022/07/29 08:17:23;;;;;;;3.00;2.80;;;;;;;35.17;37.27;99529.38;5119026;27;20205;-68
2022/07/29 08:19:50;;;;;;;3.95;3.53;;;;;;;35.42;37.09;99528.78;5125780;27;20255;-67
2022/07/29 08:22:17;;;;;;;4.05;3.85;;;;;;;35.67;37.09;99521.91;5126404;27;20216;-67
2022/07/29 08:24:44;;;;;;;3.42;3.33;;;;;;;35.87;38.05;99528.03;5124280;27;20666;-67
2022/07/29 08:27:12;;;;;;;3.50;3.30;;;;;;;34.83;36.53;99532.09;5124832;27;20222;-68
2022/07/29 08:29:40;;;;;;;3.50;3.40;;;;;;;35.02;38.58;99515.38;5130168;27;20208;-68
2022/07/29 08:32:07;;;;;;;3.55;3.45;;;;;;;35.40;38.28;99520.19;5131108;27;20201;-67
2022/07/29 08:34:34;;;;;;;3.30;3.15;;;;;;;35.33;37.90;99511.34;5128283;27;20601;-67
2022/07/29 08:37:01;;;;;;;3.50;3.28;;;;;;;35.47;37.44;99513.03;5125642;27;20193;-67
2022/07/29 08:39:28;;;;;;;4.07;3.78;;;;;;;35.23;36.51;99501.91;5128107;27;20276;-68
2022/07/29 08:41:55;;;;;;;6.47;3.80;;;;;;;35.26;36.23;99498.00;5129349;27;21076;-68
2022/07/29 08:44:23;;;;;;;3.42;3.13;;;;;;;35.38;35.34;99506.25;5127126;27;20202;-67
2022/07/29 08:46:51;;;;;;;3.78;3.47;;;;;;;35.12;35.41;99510.47;5130397;27;20194;-69
2022/07/29 08:49:18;;;;;;;3.33;3.22;;;;;;;34.65;34.38;99507.81;5125783;27;20722;-69
2022/07/29 08:51:45;;;;;;;3.60;3.40;;;;;;;34.42;36.30;99501.94;5129587;27;20246;-69
2022/07/29 08:54:17;;;;;;;3.58;3.38;;;;;;;34.48;36.18;99511.81;5116371;27;20206;-67
2022/07/29 08:56:45;;;;;;;2.78;2.67;;;;;;;34.87;35.62;99501.34;5079608;28;20203;-68
2022/07/29 08:59:14;;;;;;;3.72;3.42;;;;;;;35.19;35.85;99500.66;5084560;28;20788;-73
2022/07/29 09:01:45;;;;;;;4.43;2.92;;;;;;;35.25;33.63;99504.38;5075934;28;20203;-70
2022/07/29 09:04:13;;;;;;;3.30;3.10;;;;;;;34.70;34.54;99492.09;5088985;28;20253;-71
2022/07/29 09:06:45;;;;;;;3.35;3.05;;;;;;;34.67;34.60;99500.47;5090330;28;20556;-71
2022/07/29 09:09:13;;;;;;;3.00;2.80;;;;;;;34.76;33.21;99488.63;5089529;28;20203;-72
2022/07/29 09:11:40;;;;;;;4.10;3.72;;;;;;;34.59;32.12;99497.94;5085620;28;20206;-72
2022/07/29 09:14:07;;;;;;;2.60;2.50;;;;;;;34.91;33.25;99478.63;5078405;28;20211;-73
2022/07/29 09:16:54;;;;;;;2.30;2.17;;;;;;;35.14;32.23;99487.13;5084663;28;20218;-72
2022/07/29 09:19:24;;;;;;;3.25;2.97;;;;;;;34.86;32.49;99480.25;5081967;28;20203;-72
2022/07/29 09:22:01;;;;;;;2.72;2.63;;;;;;;35.08;33.29;99482.56;5081760;28;20598;-71
2022/07/29 09:24:38;;;;;;;3.53;3.42;;;;;;;35.09;32.23;99476.22;5084747;28;20207;-71
2022/07/29 09:27:19;;;;;;;3.38;2.88;;;;;;;34.60;34.77;99472.97;5076800;28;20253;-71
2022/07/29 09:29:46;;;;;;;3.08;2.80;;;;;;;34.49;34.01;99481.50;5084868;28;20651;-72
2022/07/29 09:32:14;;;;;;;2.47;2.38;;;;;;;34.06;35.00;99476.31;5084138;28;20208;-72
2022/07/29 09:34:41;;;;;;;2.83;2.72;;;;;;;34.11;34.56;99468.63;5082926;28;20562;-71
2022/07/29 09:37:08;;;;;;;2.65;2.55;;;;;;;34.49;35.25;99470.84;5078862;28;20204;-71
2022/07/29 09:39:37;;;;;;;2.90;2.70;;;;;;;34.62;32.46;99470.94;5083280;28;20195;-72
2022/07/29 09:42:06;;;;;;;2.40;2.30;;;;;;;34.71;30.63;99481.22;5087966;28;20238;-72
2022/07/29 09:44:44;;;;;;;2.35;2.25;;;;;;;34.84;31.63;99468.97;5086752;28;20683;-73
2022/07/29 09:47:11;;;;;;;2.30;2.20;;;;;;;34.26;31.66;99471.97;5087975;28;20202;-73
2022/07/29 09:49:54;;;;;;;2.28;2.17;;;;;;;34.35;30.01;99469.16;5086134;28;20580;-72
2022/07/29 09:52:21;;;;;;;1.95;1.85;;;;;;;34.60;31.66;99467.63;5086300;28;20207;-72
2022/07/29 09:54:48;;;;;;;2.45;2.25;;;;;;;35.07;32.99;99464.13;5094250;28;20578;-72
2022/07/29 09:57:27;;;;;;;2.20;2.10;;;;;;;35.13;28.37;99442.84;5118426;28;20202;-72
2022/07/29 09:59:58;;;;;;;3.50;1.88;;;;;;;35.25;28.88;99446.53;5126859;28;20726;-71
2022/07/29 10:02:29;;;;;;;2.13;2.03;;;;;;;35.12;29.34;99454.50;5118830;28;20289;-70
2022/07/29 10:04:58;;;;;;;1.55;1.55;;;;;;;35.19;29.83;99457.19;5124508;28;20725;-71
2022/07/29 10:07:25;;;;;;;1.90;1.90;;;;;;;35.28;30.85;99451.47;5128388;28;20222;-71
2022/07/29 10:09:55;;;;;;;2.28;2.17;;;;;;;35.27;30.21;99436.50;5122052;28;20704;-71
2022/07/29 10:12:22;;;;;;;2.08;1.77;;;;;;;35.66;29.10;99440.22;5113234;28;20248;-71
2022/07/29 10:14:50;;;;;;;2.63;2.53;;;;;;;35.54;29.94;99449.84;5123690;27;20209;-73
2022/07/29 10:17:18;;;;;;;2.50;2.40;;;;;;;35.22;30.77;99449.59;5119401;27;20201;-72
2022/07/29 10:19:45;;;;;;;2.35;2.25;;;;;;;34.96;30.19;99449.53;5125447;28;20266;-71
2022/07/29 10:22:14;;;;;;;2.35;2.25;;;;;;;35.34;30.64;99449.84;5128860;28;20201;-72
2022/07/29 10:24:41;;;;;;;2.60;2.42;;;;;;;35.54;28.93;99445.34;5122673;27;20687;-71
2022/07/29 10:27:09;;;;;;;4.20;2.40;;;;;;;35.74;28.84;99438.16;5125076;27;20204;-70
2022/07/29 10:29:37;;;;;;;3.28;3.00;;;;;;;35.60;29.82;99439.22;5129419;27;20210;-71
2022/07/29 10:32:28;;;;;;;2.22;2.13;;;;;;;35.66;30.17;99434.91;5127412;27;20645;-72
2022/07/29 10:35:29;;;;;;;2.25;2.10;;;;;;;35.43;30.36;99437.13;5132352;27;20202;-72
2022/07/29 10:38:18;;;;;;;2.25;2.15;;;;;;;35.58;29.04;99441.25;5114473;27;20194;-73
2022/07/29 10:43:45;;;;;;;1.92;1.90;;;;;;;35.64;29.61;99428.97;5122299;27;20707;-71
2022/07/29 10:46:13;;;;;;;2.28;2.17;;;;;;;35.34;29.15;99422.34;5118735;27;20198;-70
2022/07/29 10:49:11;;;;;;;2.20;2.10;;;;;;;35.32;29.09;99419.09;5120250;27;20215;-70
2022/07/29 10:52:00;;;;;;;2.28;2.17;;;;;;;35.44;29.63;99412.09;5121161;27;20579;-70
2022/07/29 10:54:50;;;;;;;5.85;2.08;;;;;;;35.56;29.60;99399.78;5122909;27;20654;-73
2022/07/29 10:57:26;;;;;;;2.30;2.20;;;;;;;35.58;30.26;99397.72;5129237;27;20289;-73
2022/07/29 11:00:25;;;;;;;2.40;2.30;;;;;;;35.67;30.08;99401.88;5124186;27;20667;-72
2022/07/29 11:02:55;;;;;;;1.67;1.67;;;;;;;35.41;28.01;99391.19;5110287;27;20206;-72
2022/07/29 11:05:23;;;;;;;2.03;1.98;;;;;;;35.56;29.08;99399.78;5125142;27;20722;-72
2022/07/29 11:08:19;;;;;;;2.67;2.42;;;;;;;35.93;29.52;99401.78;5126483;27;20244;-72
2022/07/29 11:10:49;;;;;;;2.38;2.28;;;;;;;35.82;29.15;99391.78;5126378;27;20731;-71
2022/07/29 11:13:46;;;;;;;2.65;1.95;;;;;;;35.52;28.98;99393.22;5124097;27;20198;-73
2022/07/29 11:16:13;;;;;;;2.25;2.15;;;;;;;35.44;30.74;99385.44;5124320;27;20263;-71
2022/07/29 11:19:14;;;;;;;2.08;1.98;;;;;;;35.63;28.99;99385.47;5130479;27;20608;-73
2022/07/29 11:21:42;;;;;;;2.30;2.20;;;;;;;35.71;28.15;99384.41;5126430;27;20202;-74
2022/07/29 11:24:13;;;;;;;1.90;1.80;;;;;;;35.49;28.65;99372.28;5129997;27;20206;-72
2022/07/29 11:26:42;;;;;;;2.05;2.05;;;;;;;35.55;30.51;99371.47;5123831;27;20281;-73
2022/07/29 11:29:19;;;;;;;3.55;2.10;;;;;;;35.25;30.17;99371.91;5113906;27;20267;-75
2022/07/29 11:31:51;;;;;;;2.35;2.15;;;;;;;35.28;30.63;99376.03;5129678;27;20205;-73
2022/07/29 11:34:27;;;;;;;2.65;2.40;;;;;;;35.46;30.39;99360.19;5125866;27;20270;-74
2022/07/29 11:37:16;;;;;;;2.67;2.50;;;;;;;35.46;31.28;99367.38;5127930;27;20238;-75
2022/07/29 11:39:46;;;;;;;2.55;2.45;;;;;;;35.44;31.27;99364.09;5124912;27;20185;-73
2022/07/29 11:42:45;;;;;;;2.58;2.47;;;;;;;35.45;30.53;99355.06;5122275;27;20209;-73
2022/07/29 11:45:18;;;;;;;2.10;2.00;;;;;;;35.40;30.49;99357.53;5117973;27;20581;-70
2022/07/29 11:47:53;;;;;;;2.30;2.20;;;;;;;35.58;29.63;99345.22;5113220;27;20630;-73
2022/07/29 11:50:31;;;;;;;2.60;2.40;;;;;;;35.03;30.45;99317.13;5121812;27;20558;-72